Time,TemperatureF,DewpointF,PressureIn,WindDirection,WindDirectionDegrees,WindSpeedMPH,WindSpeedGustMPH,Humidity,HourlyPrecipIn,Conditions,Clouds,dailyrainin,SoftwareType,DateUTC
2013-03-01 00:00:00,31.9,28.5,30.03,NNW,331,3.0,12.0,87,0.00,,,0.00,Wunderground v.1.15,2013-03-01 05:00:00,
2013-03-01 00:05:00,31.9,28.5,30.02,NNW,335,3.0,12.0,87,0.00,,,0.00,Wunderground v.1.15,2013-03-01 05:05:00,
2013-03-01 00:15:00,31.8,28.4,30.03,NW,320,4.0,12.0,87,0.00,,,0.00,Wunderground v.1.15,2013-03-01 05:15:00,
2013-03-01 00:20:00,31.8,28.4,30.02,NNW,333,4.0,12.0,87,0.00,,,0.00,Wunderground v.1.15,2013-03-01 05:20:00,
2013-03-01 00:30:00,31.8,28.4,30.02,NW,319,4.0,4.0,87,0.00,,,0.00,Wunderground v.1.15,2013-03-01 05:30:00,
2013-03-01 00:35:00,31.8,28.7,30.02,NNW,332,5.0,5.0,88,0.00,,,0.00,Wunderground v.1.15,2013-03-01 05:35:00,
2013-03-01 00:40:00,31.7,28.6,30.02,NW,313,4.0,12.0,88,0.00,,,0.00,Wunderground v.1.15,2013-03-01 05:40:00,
2013-03-01 00:50:00,31.7,28.6,30.02,WNW,303,5.0,5.0,88,0.00,,,0.00,Wunderground v.1.15,2013-03-01 05:50:00,
2013-03-01 00:55:00,31.7,28.6,30.02,NNW,331,5.0,6.0,88,0.00,,,0.00,Wunderground v.1.15,2013-03-01 05:55:00,
2013-03-01 01:00:00,31.7,28.6,30.02,NW,315,6.0,6.0,88,0.00,,,0.00,Wunderground v.1.15,2013-03-01 06:00:00,
2013-03-01 01:05:00,31.7,28.6,30.02,WNW,286,6.0,12.0,88,0.00,,,0.00,Wunderground v.1.15,2013-03-01 06:05:00,
2013-03-01 01:15:00,31.6,28.5,30.02,North,355,6.0,12.0,88,0.00,,,0.00,Wunderground v.1.15,2013-03-01 06:15:00,
2013-03-01 01:25:00,31.6,28.5,30.02,NW,319,5.0,11.0,88,0.00,,,0.00,Wunderground v.1.15,2013-03-01 06:25:00,
2013-03-01 01:30:00,31.5,28.4,30.02,NW,312,6.0,6.0,88,0.00,,,0.00,Wunderground v.1.15,2013-03-01 06:30:00,
2013-03-01 01:35:00,31.5,28.4,30.02,NW,312,6.0,12.0,88,0.00,,,0.00,Wunderground v.1.15,2013-03-01 06:35:00,
2013-03-01 01:40:00,31.4,28.3,30.02,NW,319,5.0,5.0,88,0.00,,,0.00,Wunderground v.1.15,2013-03-01 06:40:00,
2013-03-01 01:45:00,31.4,28.3,30.02,NW,324,5.0,8.0,88,0.00,,,0.00,Wunderground v.1.15,2013-03-01 06:45:00,
2013-03-01 01:50:00,31.4,28.3,30.02,NW,325,6.0,12.0,88,0.00,,,0.00,Wunderground v.1.15,2013-03-01 06:50:00,
2013-03-01 01:55:00,31.4,28.3,30.02,NW,315,5.0,12.0,88,0.00,,,0.00,Wunderground v.1.15,2013-03-01 06:55:00,
2013-03-01 02:00:00,31.4,28.3,30.02,NNW,333,5.0,5.0,88,0.00,,,0.00,Wunderground v.1.15,2013-03-01 07:00:00,
2013-03-01 02:05:00,31.3,28.2,30.02,NNW,346,5.0,12.0,88,0.00,,,0.00,Wunderground v.1.15,2013-03-01 07:05:00,
2013-03-01 02:10:00,31.2,28.1,30.02,WNW,300,5.0,12.0,88,0.00,,,0.00,Wunderground v.1.15,2013-03-01 07:10:00,
2013-03-01 02:20:00,31.2,28.1,30.01,NW,309,6.0,12.0,88,0.00,,,0.00,Wunderground v.1.15,2013-03-01 07:20:00,
2013-03-01 02:25:00,31.1,27.7,30.01,NW,316,7.0,12.0,87,0.00,,,0.00,Wunderground v.1.15,2013-03-01 07:25:00,
2013-03-01 02:30:00,31.0,27.3,30.01,WNW,292,7.0,7.0,86,0.00,,,0.00,Wunderground v.1.15,2013-03-01 07:30:00,
2013-03-01 02:35:00,31.0,27.6,30.01,NW,324,6.0,12.0,87,0.00,,,0.00,Wunderground v.1.15,2013-03-01 07:35:00,
2013-03-01 02:40:00,30.9,27.5,30.01,NNW,340,6.0,6.0,87,0.00,,,0.00,Wunderground v.1.15,2013-03-01 07:40:00,
2013-03-01 02:45:00,31.0,27.6,30.01,NW,317,5.0,12.0,87,0.00,,,0.00,Wunderground v.1.15,2013-03-01 07:45:00,
2013-03-01 02:50:00,30.9,27.5,30.01,WNW,288,4.0,12.0,87,0.00,,,0.00,Wunderground v.1.15,2013-03-01 07:50:00,
2013-03-01 02:55:00,30.9,27.5,30.01,NNW,333,5.0,12.0,87,0.00,,,0.00,Wunderground v.1.15,2013-03-01 07:55:00,
2013-03-01 03:00:00,30.9,27.2,30.01,NNW,329,7.0,12.0,86,0.00,,,0.00,Wunderground v.1.15,2013-03-01 08:00:00,
2013-03-01 03:05:00,30.8,27.1,30.01,WNW,299,8.0,12.0,86,0.00,,,0.00,Wunderground v.1.15,2013-03-01 08:05:00,
2013-03-01 03:10:00,30.8,27.1,30.01,West,276,7.0,7.0,86,0.00,,,0.00,Wunderground v.1.15,2013-03-01 08:10:00,
2013-03-01 03:15:00,30.8,27.1,30.01,NW,308,5.0,12.0,86,0.00,,,0.00,Wunderground v.1.15,2013-03-01 08:15:00,
2013-03-01 03:20:00,30.8,27.1,30.01,NNW,332,5.0,12.0,86,0.00,,,0.00,Wunderground v.1.15,2013-03-01 08:20:00,
2013-03-01 03:25:00,30.8,27.1,30.01,NNW,338,6.0,12.0,86,0.00,,,0.00,Wunderground v.1.15,2013-03-01 08:25:00,
2013-03-01 03:35:00,30.8,27.1,30.00,NW,309,5.0,12.0,86,0.00,,,0.00,Wunderground v.1.15,2013-03-01 08:35:00,
2013-03-01 03:45:00,30.7,27.3,30.00,NW,308,5.0,12.0,87,0.00,,,0.00,Wunderground v.1.15,2013-03-01 08:45:00,
2013-03-01 03:50:00,30.6,26.9,30.00,WNW,296,6.0,6.0,86,0.00,,,0.00,Wunderground v.1.15,2013-03-01 08:50:00,
2013-03-01 03:55:00,30.5,26.8,30.00,WNW,298,6.0,7.0,86,0.00,,,0.00,Wunderground v.1.15,2013-03-01 08:55:00,
2013-03-01 04:00:00,30.3,26.6,30.00,NNW,329,6.0,12.0,86,0.00,,,0.00,Wunderground v.1.15,2013-03-01 09:00:00,
2013-03-01 04:10:00,30.3,26.9,30.00,WNW,298,6.0,6.0,87,0.00,,,0.00,Wunderground v.1.15,2013-03-01 09:10:00,
2013-03-01 04:15:00,30.2,26.8,30.00,NNW,327,5.0,12.0,87,0.00,,,0.00,Wunderground v.1.15,2013-03-01 09:15:00,
2013-03-01 04:20:00,30.2,27.1,30.00,NNW,348,5.0,12.0,88,0.00,,,0.00,Wunderground v.1.15,2013-03-01 09:20:00,
2013-03-01 04:25:00,30.1,27.0,30.00,NW,311,6.0,12.0,88,0.00,,,0.00,Wunderground v.1.15,2013-03-01 09:25:00,
2013-03-01 04:30:00,30.1,27.0,30.00,West,273,6.0,12.0,88,0.00,,,0.00,Wunderground v.1.15,2013-03-01 09:30:00,
2013-03-01 04:40:00,30.0,27.2,30.00,NW,316,6.0,12.0,89,0.00,,,0.00,Wunderground v.1.15,2013-03-01 09:40:00,
2013-03-01 04:45:00,30.0,27.2,30.00,NW,326,6.0,12.0,89,0.00,,,0.00,Wunderground v.1.15,2013-03-01 09:45:00,
2013-03-01 04:50:00,29.9,27.1,30.00,NW,306,6.0,12.0,89,0.00,,,0.00,Wunderground v.1.15,2013-03-01 09:50:00,
2013-03-01 04:55:00,29.9,27.1,30.01,NNW,343,6.0,12.0,89,0.00,,,0.00,Wunderground v.1.15,2013-03-01 09:55:00,
2013-03-01 05:00:00,29.9,27.1,30.01,NNW,327,6.0,12.0,89,0.00,,,0.00,Wunderground v.1.15,2013-03-01 10:00:00,
2013-03-01 05:05:00,29.8,27.0,30.01,NW,324,6.0,12.0,89,0.00,,,0.00,Wunderground v.1.15,2013-03-01 10:05:00,
2013-03-01 05:10:00,29.8,27.0,30.01,NW,324,6.0,12.0,89,0.00,,,0.00,Wunderground v.1.15,2013-03-01 10:10:00,
2013-03-01 05:15:00,29.8,27.0,30.01,NW,326,7.0,12.0,89,0.00,,,0.00,Wunderground v.1.15,2013-03-01 10:15:00,
2013-03-01 05:20:00,29.7,26.9,30.01,North,355,6.0,12.0,89,0.00,,,0.00,Wunderground v.1.15,2013-03-01 10:20:00,
2013-03-01 05:25:00,29.7,26.9,30.01,NNW,329,4.0,12.0,89,0.00,,,0.00,Wunderground v.1.15,2013-03-01 10:25:00,
2013-03-01 05:30:00,29.7,26.9,30.01,NNW,331,5.0,12.0,89,0.00,,,0.00,Wunderground v.1.15,2013-03-01 10:30:00,
2013-03-01 05:40:00,29.7,27.1,30.02,NW,318,5.0,12.0,90,0.00,,,0.00,Wunderground v.1.15,2013-03-01 10:40:00,
2013-03-01 05:45:00,29.6,26.8,30.02,NW,316,5.0,12.0,89,0.00,,,0.00,Wunderground v.1.15,2013-03-01 10:45:00,
2013-03-01 05:50:00,29.6,27.0,30.02,NNW,344,4.0,12.0,90,0.00,,,0.00,Wunderground v.1.15,2013-03-01 10:50:00,
2013-03-01 05:55:00,29.6,26.8,30.02,NW,315,5.0,12.0,89,0.00,,,0.00,Wunderground v.1.15,2013-03-01 10:55:00,
2013-03-01 06:00:00,29.6,27.0,30.02,NW,318,5.0,8.0,90,0.00,,,0.00,Wunderground v.1.15,2013-03-01 11:00:00,
2013-03-01 06:10:00,29.4,26.6,30.02,NNW,336,6.0,6.0,89,0.00,,,0.00,Wunderground v.1.15,2013-03-01 11:10:00,
2013-03-01 06:15:00,29.4,26.8,30.02,NW,310,5.0,6.0,90,0.00,,,0.00,Wunderground v.1.15,2013-03-01 11:15:00,
2013-03-01 06:25:00,29.4,26.8,30.02,NW,325,5.0,6.0,90,0.00,,,0.00,Wunderground v.1.15,2013-03-01 11:25:00,
2013-03-01 06:30:00,29.4,26.8,30.02,NW,312,6.0,6.0,90,0.00,,,0.00,Wunderground v.1.15,2013-03-01 11:30:00,
2013-03-01 06:35:00,29.4,26.8,30.02,NNW,333,6.0,6.0,90,0.00,,,0.00,Wunderground v.1.15,2013-03-01 11:35:00,
2013-03-01 06:45:00,29.3,26.7,30.02,NW,322,6.0,7.0,90,0.00,,,0.00,Wunderground v.1.15,2013-03-01 11:45:00,
2013-03-01 06:50:00,29.3,27.0,30.02,NW,322,5.0,9.0,91,0.00,,,0.00,Wunderground v.1.15,2013-03-01 11:50:00,
2013-03-01 07:00:00,29.3,27.0,30.02,WNW,303,7.0,9.0,91,0.00,,,0.00,Wunderground v.1.15,2013-03-01 12:00:00,
2013-03-01 07:05:00,29.2,26.9,30.02,WNW,302,6.0,10.0,91,0.00,,,0.00,Wunderground v.1.15,2013-03-01 12:05:00,
2013-03-01 07:10:00,29.1,26.8,30.02,North,355,6.0,10.0,91,0.00,,,0.00,Wunderground v.1.15,2013-03-01 12:10:00,
2013-03-01 07:15:00,29.0,26.7,30.02,NNW,338,5.0,10.0,91,0.00,,,0.00,Wunderground v.1.15,2013-03-01 12:15:00,
2013-03-01 07:20:00,28.9,26.6,30.03,NNW,346,6.0,10.0,91,0.00,,,0.00,Wunderground v.1.15,2013-03-01 12:20:00,
2013-03-01 07:25:00,28.9,26.9,30.03,NW,315,6.0,10.0,92,0.00,,,0.00,Wunderground v.1.15,2013-03-01 12:25:00,
2013-03-01 07:30:00,28.8,26.8,30.03,NW,325,5.0,10.0,92,0.00,,,0.00,Wunderground v.1.15,2013-03-01 12:30:00,
2013-03-01 07:35:00,28.8,27.0,30.03,NW,307,6.0,10.0,93,0.00,,,0.00,Wunderground v.1.15,2013-03-01 12:35:00,
2013-03-01 07:40:00,28.7,26.9,30.03,NW,321,5.0,11.0,93,0.00,,,0.00,Wunderground v.1.15,2013-03-01 12:40:00,
2013-03-01 07:45:00,28.6,27.1,30.03,NNW,328,5.0,11.0,94,0.00,,,0.00,Wunderground v.1.15,2013-03-01 12:45:00,
2013-03-01 07:50:00,28.6,27.1,30.03,NW,313,5.0,5.0,94,0.00,,,0.00,Wunderground v.1.15,2013-03-01 12:50:00,
2013-03-01 08:00:00,28.6,27.1,30.04,NW,308,5.0,10.0,94,0.00,,,0.00,Wunderground v.1.15,2013-03-01 13:00:00,
2013-03-01 08:05:00,28.6,27.1,30.04,NW,311,5.0,10.0,94,0.00,,,0.00,Wunderground v.1.15,2013-03-01 13:05:00,
2013-03-01 08:10:00,28.6,27.1,30.04,NNW,332,4.0,10.0,94,0.00,,,0.00,Wunderground v.1.15,2013-03-01 13:10:00,
2013-03-01 08:15:00,28.6,27.1,30.04,NW,321,5.0,10.0,94,0.00,,,0.00,Wunderground v.1.15,2013-03-01 13:15:00,
2013-03-01 08:20:00,28.7,27.2,30.04,NW,320,5.0,5.0,94,0.00,,,0.00,Wunderground v.1.15,2013-03-01 13:20:00,
2013-03-01 08:25:00,28.8,27.3,30.04,NNW,335,4.0,6.0,94,0.00,,,0.00,Wunderground v.1.15,2013-03-01 13:25:00,
2013-03-01 08:30:00,28.9,27.4,30.04,NW,308,4.0,10.0,94,0.00,,,0.00,Wunderground v.1.15,2013-03-01 13:30:00,
2013-03-01 08:40:00,28.9,27.1,30.04,NNW,331,5.0,10.0,93,0.00,,,0.00,Wunderground v.1.15,2013-03-01 13:40:00,
2013-03-01 08:45:00,28.9,27.1,30.05,NW,321,5.0,10.0,93,0.00,,,0.00,Wunderground v.1.15,2013-03-01 13:45:00,
2013-03-01 08:50:00,28.8,27.0,30.05,NW,319,5.0,10.0,93,0.00,,,0.00,Wunderground v.1.15,2013-03-01 13:50:00,
2013-03-01 08:55:00,28.8,27.3,30.05,NW,321,5.0,10.0,94,0.00,,,0.00,Wunderground v.1.15,2013-03-01 13:55:00,
2013-03-01 09:05:00,28.8,27.5,30.05,WNW,290,5.0,10.0,95,0.00,,,0.00,Wunderground v.1.15,2013-03-01 14:05:00,
2013-03-01 09:10:00,28.8,27.5,30.05,NNW,332,5.0,5.0,95,0.00,,,0.00,Wunderground v.1.15,2013-03-01 14:10:00,
2013-03-01 09:20:00,28.8,27.5,30.05,NNW,331,5.0,10.0,95,0.00,,,0.00,Wunderground v.1.15,2013-03-01 14:20:00,
2013-03-01 09:25:00,28.8,27.5,30.05,NNW,329,6.0,10.0,95,0.00,,,0.00,Wunderground v.1.15,2013-03-01 14:25:00,
2013-03-01 09:30:00,28.8,27.5,30.05,NW,317,6.0,10.0,95,0.00,,,0.00,Wunderground v.1.15,2013-03-01 14:30:00,
2013-03-01 09:35:00,28.9,27.6,30.05,North,351,6.0,10.0,95,0.00,,,0.00,Wunderground v.1.15,2013-03-01 14:35:00,
2013-03-01 09:40:00,29.0,27.7,30.05,NNW,332,5.0,10.0,95,0.00,,,0.00,Wunderground v.1.15,2013-03-01 14:40:00,
2013-03-01 09:45:00,28.9,27.6,30.05,NNW,331,4.0,10.0,95,0.00,,,0.00,Wunderground v.1.15,2013-03-01 14:45:00,
2013-03-01 09:50:00,28.9,27.6,30.05,NNW,338,5.0,10.0,95,0.00,,,0.00,Wunderground v.1.15,2013-03-01 14:50:00,
2013-03-01 09:55:00,28.9,27.6,30.05,NW,318,6.0,10.0,95,0.00,,,0.00,Wunderground v.1.15,2013-03-01 14:55:00,
2013-03-01 10:05:00,29.1,28.1,30.05,NNW,338,5.0,6.0,96,0.00,,,0.00,Wunderground v.1.15,2013-03-01 15:05:00,
2013-03-01 10:10:00,29.2,28.2,30.05,NW,321,5.0,10.0,96,0.00,,,0.00,Wunderground v.1.15,2013-03-01 15:10:00,
2013-03-01 10:15:00,29.2,28.2,30.05,North,350,6.0,10.0,96,0.00,,,0.00,Wunderground v.1.15,2013-03-01 15:15:00,
2013-03-01 10:20:00,29.3,28.3,30.05,NW,318,6.0,6.0,96,0.00,,,0.00,Wunderground v.1.15,2013-03-01 15:20:00,
2013-03-01 10:25:00,29.5,28.5,30.05,NW,323,4.0,10.0,96,0.00,,,0.00,Wunderground v.1.15,2013-03-01 15:25:00,
2013-03-01 10:30:00,29.6,28.6,30.05,North,355,4.0,5.0,96,0.00,,,0.00,Wunderground v.1.15,2013-03-01 15:30:00,
2013-03-01 10:35:00,29.5,28.5,30.05,NNW,331,5.0,5.0,96,0.00,,,0.00,Wunderground v.1.15,2013-03-01 15:35:00,
2013-03-01 10:40:00,29.7,28.7,30.05,NW,319,5.0,5.0,96,0.00,,,0.00,Wunderground v.1.15,2013-03-01 15:40:00,
2013-03-01 10:45:00,29.8,28.8,30.05,NNW,327,4.0,5.0,96,0.00,,,0.00,Wunderground v.1.15,2013-03-01 15:45:00,
2013-03-01 10:55:00,29.9,28.9,30.05,NW,318,4.0,4.0,96,0.00,,,0.00,Wunderground v.1.15,2013-03-01 15:55:00,
2013-03-01 11:05:00,30.0,29.0,30.05,NW,317,5.0,11.0,96,0.00,,,0.00,Wunderground v.1.15,2013-03-01 16:05:00,
2013-03-01 11:10:00,30.1,29.1,30.06,WNW,297,5.0,5.0,96,0.00,,,0.00,Wunderground v.1.15,2013-03-01 16:10:00,
2013-03-01 11:15:00,30.3,29.3,30.06,NNW,342,4.0,6.0,96,0.00,,,0.00,Wunderground v.1.15,2013-03-01 16:15:00,
2013-03-01 11:20:00,30.3,29.3,30.06,NNW,327,5.0,11.0,96,0.00,,,0.00,Wunderground v.1.15,2013-03-01 16:20:00,
2013-03-01 11:30:00,30.5,29.2,30.06,NNW,333,5.0,5.0,95,0.00,,,0.00,Wunderground v.1.15,2013-03-01 16:30:00,
2013-03-01 11:35:00,30.7,29.7,30.06,NW,324,4.0,11.0,96,0.00,,,0.00,Wunderground v.1.15,2013-03-01 16:35:00,
2013-03-01 11:40:00,30.8,29.5,30.06,NNW,342,4.0,4.0,95,0.00,,,0.00,Wunderground v.1.15,2013-03-01 16:40:00,
2013-03-01 11:45:00,30.9,29.6,30.06,NNW,340,4.0,9.0,95,0.00,,,0.00,Wunderground v.1.15,2013-03-01 16:45:00,
2013-03-01 11:55:00,31.0,29.7,30.06,North,350,5.0,11.0,95,0.00,,,0.00,Wunderground v.1.15,2013-03-01 16:55:00,
2013-03-01 12:05:00,31.2,29.9,30.06,NNW,347,4.0,11.0,95,0.00,,,0.00,Wunderground v.1.15,2013-03-01 17:05:00,
2013-03-01 12:10:00,31.3,30.3,30.06,NW,313,4.0,4.0,96,0.00,,,0.00,Wunderground v.1.15,2013-03-01 17:10:00,
2013-03-01 12:15:00,31.4,30.4,30.06,NNW,347,3.0,6.0,96,0.00,,,0.00,Wunderground v.1.15,2013-03-01 17:15:00,
2013-03-01 12:20:00,31.5,30.5,30.06,NNW,348,3.0,11.0,96,0.00,,,0.00,Wunderground v.1.15,2013-03-01 17:20:00,
2013-03-01 12:25:00,31.5,30.5,30.06,NNW,348,3.0,11.0,96,0.00,,,0.00,Wunderground v.1.15,2013-03-01 17:25:00,
2013-03-01 12:30:00,31.5,30.5,30.06,NNW,343,3.0,11.0,96,0.00,,,0.00,Wunderground v.1.15,2013-03-01 17:30:00,
2013-03-01 12:40:00,31.5,30.5,30.06,North,349,3.0,11.0,96,0.00,,,0.00,Wunderground v.1.15,2013-03-01 17:40:00,
2013-03-01 12:45:00,31.5,30.5,30.06,NNE,30,3.0,11.0,96,0.00,,,0.00,Wunderground v.1.15,2013-03-01 17:45:00,
2013-03-01 12:50:00,31.5,30.5,30.06,NNE,30,3.0,3.0,96,0.00,,,0.00,Wunderground v.1.15,2013-03-01 17:50:00,
2013-03-01 13:00:00,31.5,30.5,30.06,NNW,340,3.0,3.0,96,0.00,,,0.00,Wunderground v.1.15,2013-03-01 18:00:00,
2013-03-01 13:05:00,31.5,30.5,30.06,NW,319,3.0,11.0,96,0.00,,,0.00,Wunderground v.1.15,2013-03-01 18:05:00,
2013-03-01 13:15:00,31.5,30.5,30.06,NW,325,3.0,11.0,96,0.00,,,0.01,Wunderground v.1.15,2013-03-01 18:15:00,
2013-03-01 13:20:00,31.6,30.6,30.06,NNW,342,3.0,11.0,96,0.00,,,0.01,Wunderground v.1.15,2013-03-01 18:20:00,
2013-03-01 13:25:00,31.6,30.6,30.05,NW,321,4.0,11.0,96,0.00,,,0.01,Wunderground v.1.15,2013-03-01 18:25:00,
2013-03-01 13:30:00,31.9,30.9,30.05,WNW,295,4.0,4.0,96,0.00,,,0.01,Wunderground v.1.15,2013-03-01 18:30:00,
2013-03-01 13:35:00,32.1,31.1,30.05,NNW,332,3.0,11.0,96,0.00,,,0.01,Wunderground v.1.15,2013-03-01 18:35:00,
2013-03-01 13:45:00,32.5,31.0,30.05,North,355,3.0,11.0,94,0.00,,,0.01,Wunderground v.1.15,2013-03-01 18:45:00,
2013-03-01 13:50:00,32.6,31.1,30.05,North,355,3.0,3.0,94,0.00,,,0.01,Wunderground v.1.15,2013-03-01 18:50:00,
2013-03-01 14:00:00,32.5,30.4,30.05,NNW,341,4.0,4.0,92,0.00,,,0.01,Wunderground v.1.15,2013-03-01 19:00:00,
2013-03-01 14:05:00,32.8,31.0,30.05,NW,324,3.0,11.0,93,0.00,,,0.01,Wunderground v.1.15,2013-03-01 19:05:00,
2013-03-01 14:10:00,33.1,31.0,30.05,NNW,343,2.0,11.0,92,0.00,,,0.01,Wunderground v.1.15,2013-03-01 19:10:00,
2013-03-01 14:20:00,33.2,30.3,30.05,NNW,330,4.0,4.0,89,0.00,,,0.01,Wunderground v.1.15,2013-03-01 19:20:00,
2013-03-01 14:25:00,33.3,30.4,30.05,NW,317,3.0,11.0,89,0.00,,,0.01,Wunderground v.1.15,2013-03-01 19:25:00,
2013-03-01 14:30:00,33.3,29.6,30.05,NW,309,3.0,3.0,86,0.00,,,0.01,Wunderground v.1.15,2013-03-01 19:30:00,
2013-03-01 14:35:00,33.3,29.3,30.05,NW,326,3.0,11.0,85,0.00,,,0.01,Wunderground v.1.15,2013-03-01 19:35:00,
2013-03-01 14:40:00,33.3,29.3,30.05,NW,304,3.0,3.0,85,0.00,,,0.01,Wunderground v.1.15,2013-03-01 19:40:00,
2013-03-01 14:45:00,33.1,29.4,30.05,NNW,340,3.0,4.0,86,0.00,,,0.01,Wunderground v.1.15,2013-03-01 19:45:00,
2013-03-01 14:55:00,33.0,29.3,30.05,North,355,3.0,11.0,86,0.00,,,0.01,Wunderground v.1.15,2013-03-01 19:55:00,
2013-03-01 15:00:00,33.1,29.4,30.05,North,355,3.0,3.0,86,0.00,,,0.01,Wunderground v.1.15,2013-03-01 20:00:00,
2013-03-01 15:05:00,33.1,29.1,30.05,NNW,337,3.0,5.0,85,0.00,,,0.01,Wunderground v.1.15,2013-03-01 20:05:00,
2013-03-01 15:10:00,33.1,29.4,30.05,North,355,4.0,4.0,86,0.00,,,0.01,Wunderground v.1.15,2013-03-01 20:10:00,
2013-03-01 15:20:00,33.0,28.7,30.05,NNW,336,3.0,3.0,84,0.00,,,0.01,Wunderground v.1.15,2013-03-01 20:20:00,
2013-03-01 15:25:00,33.0,29.0,30.05,North,355,3.0,3.0,85,0.00,,,0.01,Wunderground v.1.15,2013-03-01 20:25:00,
2013-03-01 15:30:00,33.1,29.4,30.05,ENE,58,2.0,5.0,86,0.00,,,0.01,Wunderground v.1.15,2013-03-01 20:30:00,
2013-03-01 15:35:00,33.2,29.5,30.05,NE,48,2.0,11.0,86,0.00,,,0.01,Wunderground v.1.15,2013-03-01 20:35:00,
2013-03-01 15:40:00,33.2,29.2,30.05,NW,318,3.0,11.0,85,0.00,,,0.01,Wunderground v.1.15,2013-03-01 20:40:00,
2013-03-01 15:45:00,33.2,29.2,30.05,North,5,2.0,11.0,85,0.00,,,0.01,Wunderground v.1.15,2013-03-01 20:45:00,
2013-03-01 15:50:00,33.2,28.9,30.06,NNW,340,2.0,2.0,84,0.00,,,0.01,Wunderground v.1.15,2013-03-01 20:50:00,
2013-03-01 16:00:00,33.3,28.7,30.06,NNE,13,1.0,11.0,83,0.00,,,0.01,Wunderground v.1.15,2013-03-01 21:00:00,
2013-03-01 16:05:00,33.3,28.7,30.06,North,5,2.0,11.0,83,0.00,,,0.01,Wunderground v.1.15,2013-03-01 21:05:00,
2013-03-01 16:15:00,33.2,28.9,30.06,North,355,2.0,6.0,84,0.00,,,0.01,Wunderground v.1.15,2013-03-01 21:15:00,
2013-03-01 16:20:00,33.1,29.1,30.06,NNW,342,1.0,1.0,85,0.00,,,0.01,Wunderground v.1.15,2013-03-01 21:20:00,
2013-03-01 16:25:00,33.1,29.1,30.06,NNW,336,1.0,7.0,85,0.00,,,0.01,Wunderground v.1.15,2013-03-01 21:25:00,
2013-03-01 16:30:00,32.9,28.6,30.06,North,355,2.0,2.0,84,0.00,,,0.01,Wunderground v.1.15,2013-03-01 21:30:00,
2013-03-01 16:35:00,32.8,28.5,30.06,NNE,14,3.0,4.0,84,0.00,,,0.01,Wunderground v.1.15,2013-03-01 21:35:00,
2013-03-01 16:40:00,32.7,29.0,30.06,NW,325,2.0,2.0,86,0.00,,,0.01,Wunderground v.1.15,2013-03-01 21:40:00,
2013-03-01 16:45:00,32.7,29.0,30.06,NNE,17,1.0,11.0,86,0.00,,,0.01,Wunderground v.1.15,2013-03-01 21:45:00,
2013-03-01 16:50:00,32.7,29.0,30.06,NW,318,1.0,1.0,86,0.00,,,0.01,Wunderground v.1.15,2013-03-01 21:50:00,
2013-03-01 16:55:00,32.8,29.4,30.06,NNW,327,1.0,3.0,87,0.00,,,0.01,Wunderground v.1.15,2013-03-01 21:55:00,
2013-03-01 17:05:00,32.7,29.3,30.06,NNW,338,2.0,11.0,87,0.00,,,0.01,Wunderground v.1.15,2013-03-01 22:05:00,
2013-03-01 17:10:00,32.7,29.3,30.06,NNW,332,1.0,11.0,87,0.00,,,0.01,Wunderground v.1.15,2013-03-01 22:10:00,
2013-03-01 17:15:00,32.7,29.3,30.06,NNW,328,2.0,11.0,87,0.00,,,0.01,Wunderground v.1.15,2013-03-01 22:15:00,
2013-03-01 17:20:00,32.7,29.3,30.06,NNW,328,2.0,2.0,87,0.00,,,0.01,Wunderground v.1.15,2013-03-01 22:20:00,
2013-03-01 17:25:00,32.7,29.3,30.06,NNW,330,2.0,3.0,87,0.00,,,0.01,Wunderground v.1.15,2013-03-01 22:25:00,
2013-03-01 17:30:00,32.7,29.5,30.06,NNW,330,1.0,1.0,88,0.00,,,0.01,Wunderground v.1.15,2013-03-01 22:30:00,
2013-03-01 17:35:00,32.7,29.5,30.06,NNW,348,1.0,11.0,88,0.00,,,0.01,Wunderground v.1.15,2013-03-01 22:35:00,
2013-03-01 17:45:00,32.6,29.4,30.07,NW,319,3.0,11.0,88,0.00,,,0.01,Wunderground v.1.15,2013-03-01 22:45:00,
2013-03-01 17:50:00,32.6,29.4,30.07,NW,323,3.0,3.0,88,0.00,,,0.01,Wunderground v.1.15,2013-03-01 22:50:00,
2013-03-01 17:55:00,32.6,29.4,30.07,North,349,3.0,11.0,88,0.00,,,0.01,Wunderground v.1.15,2013-03-01 22:55:00,
2013-03-01 18:00:00,32.6,29.4,30.07,NNW,330,3.0,11.0,88,0.00,,,0.01,Wunderground v.1.15,2013-03-01 23:00:00,
2013-03-01 18:05:00,32.6,29.4,30.07,NNW,333,3.0,11.0,88,0.00,,,0.01,Wunderground v.1.15,2013-03-01 23:05:00,
2013-03-01 18:15:00,32.6,29.2,30.07,NNW,336,3.0,11.0,87,0.00,,,0.01,Wunderground v.1.15,2013-03-01 23:15:00,
2013-03-01 18:20:00,32.6,29.2,30.07,NNW,331,3.0,3.0,87,0.00,,,0.01,Wunderground v.1.15,2013-03-01 23:20:00,
2013-03-01 18:25:00,32.6,28.9,30.07,North,350,3.0,4.0,86,0.00,,,0.01,Wunderground v.1.15,2013-03-01 23:25:00,
2013-03-01 18:30:00,32.6,29.2,30.08,NNW,336,3.0,11.0,87,0.00,,,0.01,Wunderground v.1.15,2013-03-01 23:30:00,
2013-03-01 18:40:00,32.6,29.2,30.08,NW,323,4.0,11.0,87,0.00,,,0.01,Wunderground v.1.15,2013-03-01 23:40:00,
2013-03-01 18:45:00,32.5,29.1,30.08,NNW,328,4.0,11.0,87,0.00,,,0.01,Wunderground v.1.15,2013-03-01 23:45:00,
2013-03-01 18:55:00,32.3,28.6,30.08,NW,306,4.0,11.0,86,0.00,,,0.01,Wunderground v.1.15,2013-03-01 23:55:00,
2013-03-01 19:00:00,32.3,28.9,30.09,NNW,344,4.0,4.0,87,0.00,,,0.01,Wunderground v.1.15,2013-03-02 00:00:00,
2013-03-01 19:05:00,32.2,28.8,30.09,NW,323,4.0,7.0,87,0.00,,,0.01,Wunderground v.1.15,2013-03-02 00:05:00,
2013-03-01 19:10:00,32.1,28.7,30.09,NNW,331,5.0,5.0,87,0.00,,,0.01,Wunderground v.1.15,2013-03-02 00:10:00,
2013-03-01 19:15:00,32.1,28.7,30.09,NNE,17,5.0,8.0,87,0.00,,,0.01,Wunderground v.1.15,2013-03-02 00:15:00,
2013-03-01 19:25:00,32.0,28.0,30.10,NNE,24,4.0,8.0,85,0.00,,,0.01,Wunderground v.1.15,2013-03-02 00:25:00,
2013-03-01 19:30:00,31.8,28.1,30.10,NNW,327,3.0,3.0,86,0.00,,,0.01,Wunderground v.1.15,2013-03-02 00:30:00,
2013-03-01 19:35:00,31.6,27.9,30.10,NW,324,4.0,5.0,86,0.00,,,0.01,Wunderground v.1.15,2013-03-02 00:35:00,
2013-03-01 19:40:00,31.4,27.7,30.10,NW,315,5.0,5.0,86,0.00,,,0.01,Wunderground v.1.15,2013-03-02 00:40:00,
2013-03-01 19:45:00,31.2,27.2,30.10,NNW,342,6.0,6.0,85,0.00,,,0.01,Wunderground v.1.15,2013-03-02 00:45:00,
2013-03-01 19:55:00,30.8,26.8,30.10,NW,319,7.0,11.0,85,0.00,,,0.01,Wunderground v.1.15,2013-03-02 00:55:00,
2013-03-01 20:05:00,30.7,26.7,30.10,NNW,329,6.0,11.0,85,0.00,,,0.01,Wunderground v.1.15,2013-03-02 01:05:00,
2013-03-01 20:10:00,30.6,26.6,30.10,WNW,301,6.0,11.0,85,0.00,,,0.01,Wunderground v.1.15,2013-03-02 01:10:00,
2013-03-01 20:15:00,30.5,26.2,30.11,WNW,294,6.0,11.0,84,0.00,,,0.01,Wunderground v.1.15,2013-03-02 01:15:00,
2013-03-01 20:20:00,30.5,26.2,30.11,North,350,6.0,11.0,84,0.00,,,0.01,Wunderground v.1.15,2013-03-02 01:20:00,
2013-03-01 20:25:00,30.4,26.1,30.11,NNW,335,6.0,11.0,84,0.00,,,0.01,Wunderground v.1.15,2013-03-02 01:25:00,
2013-03-01 20:30:00,30.3,26.0,30.11,North,355,7.0,11.0,84,0.00,,,0.01,Wunderground v.1.15,2013-03-02 01:30:00,
2013-03-01 20:35:00,30.3,26.3,30.11,NNW,329,7.0,11.0,85,0.00,,,0.01,Wunderground v.1.15,2013-03-02 01:35:00,
2013-03-01 20:40:00,30.3,26.6,30.11,NNW,339,5.0,11.0,86,0.00,,,0.01,Wunderground v.1.15,2013-03-02 01:40:00,
2013-03-01 20:45:00,30.2,26.2,30.11,NNW,331,6.0,11.0,85,0.00,,,0.01,Wunderground v.1.15,2013-03-02 01:45:00,
2013-03-01 20:55:00,30.0,26.3,30.11,NW,311,6.0,11.0,86,0.00,,,0.01,Wunderground v.1.15,2013-03-02 01:55:00,
2013-03-01 21:00:00,29.8,25.8,30.12,NW,324,7.0,7.0,85,0.00,,,0.01,Wunderground v.1.15,2013-03-02 02:00:00,
2013-03-01 21:05:00,29.8,26.1,30.12,North,360,7.0,11.0,86,0.00,,,0.01,Wunderground v.1.15,2013-03-02 02:05:00,
2013-03-01 21:10:00,29.7,25.7,30.12,NNW,328,6.0,6.0,85,0.00,,,0.01,Wunderground v.1.15,2013-03-02 02:10:00,
2013-03-01 21:15:00,29.7,26.0,30.12,NNW,333,6.0,11.0,86,0.00,,,0.01,Wunderground v.1.15,2013-03-02 02:15:00,
2013-03-01 21:20:00,29.7,26.0,30.12,NW,320,6.0,11.0,86,0.00,,,0.01,Wunderground v.1.15,2013-03-02 02:20:00,
2013-03-01 21:25:00,29.6,25.9,30.12,NNW,344,6.0,11.0,86,0.00,,,0.01,Wunderground v.1.15,2013-03-02 02:25:00,
2013-03-01 21:30:00,29.6,26.2,30.12,NW,318,6.0,7.0,87,0.00,,,0.01,Wunderground v.1.15,2013-03-02 02:30:00,
2013-03-01 21:35:00,29.4,26.0,30.12,North,349,6.0,7.0,87,0.00,,,0.01,Wunderground v.1.15,2013-03-02 02:35:00,
2013-03-01 21:40:00,29.4,26.0,30.12,NNW,328,6.0,8.0,87,0.00,,,0.01,Wunderground v.1.15,2013-03-02 02:40:00,